North Potomac, Maryland
Current Conditions -  °F | °C
As of 1:15 PM on Thursday 23 Oct 2014 (Local Time) from KGAI Reporting Station
Overcast Overcast  
Wind Chill: 59°   Ceiling: 3700
Heat Index: 59°   Visibility: 10mi
Dew Point: 43°   Wind: 15mph
Humidity: 55%   Direction: 310°NW
Pressure: 29.91"   Gusts: 26mph
Location:  39.08°N, 77.26°W
Report Text: KGAI 231715Z 31013G23KT 10SM BKN037 OVC046 15/06 A2991 RMK AO1
Loading
Personal Weather Stations






























Interactive Weather Map
Tropical Storm Tracking
New forecast layout! Learn more

10-Day Weather Forecast

Advertisements
Track Severe Weather on mobile